3MO4 weather

Penman Airport
Portageville, Missouri, United States

Public forecast

Using degrees Fahrenheit for public forecast. Weather courtesy of forecast.io.

Closest aviation weather report (METAR) to Penman Airport

Closest report is Kennett Memorial Airport, 23.9 nm (44.3 km) SW. Retrieved 2020/06/05 02:55 UTC (24 minutes ago):

KTKX 050255Z AUTO 00000KT 10SM CLR 24/22 A2983 RMK AO2

Closest aviation forecast (TAF) to Penman Airport

Closest forecast is Cape Girardeau Regional Airport, 46.6 nm (86.3 km) N. Retrieved 2020-06-05 00:36 UTC (3 hours ago):

TAF KCGI 042332Z 0500/0524 34004KT P6SM FEW250 FM050700 00000KT 5SM BR SKC FM051000 00000KT 2SM BR SKC FM051200 00000KT 4SM BR SKC FM051300 19003KT P6SM SKC FM051700 19005KT P6SM SCT030